createdAt,value
2019-04-01T00:04:36.627Z,96953.27
2019-04-01T00:09:31.215Z,96951.80
2019-04-01T00:14:25.810Z,96947.54
2019-04-01T00:19:20.396Z,96952.13
2019-04-01T00:24:15.004Z,96947.17
2019-04-01T00:29:09.586Z,96947.13
2019-04-01T00:34:04.177Z,96950.84
2019-04-01T00:38:58.759Z,96941.52
2019-04-01T00:43:55.960Z,96944.45
2019-04-01T00:48:50.535Z,96942.20
2019-04-01T00:53:45.215Z,96934.47
2019-04-01T00:58:39.783Z,96937.13
2019-04-01T01:03:34.557Z,96927.77
2019-04-01T01:08:29.137Z,96925.36
2019-04-01T01:13:23.906Z,96933.35
2019-04-01T01:18:18.475Z,96923.44
2019-04-01T01:23:13.075Z,96923.03
2019-04-01T01:28:07.665Z,96921.95
2019-04-01T01:33:02.255Z,96924.28
2019-04-01T01:37:56.834Z,96917.06
2019-04-01T01:42:51.484Z,96911.33
2019-04-01T01:47:47.668Z,96909.13
2019-04-01T01:52:42.255Z,96905.43
2019-04-01T01:57:36.827Z,96903.14
2019-04-01T02:02:31.553Z,96898.91
2019-04-01T02:07:26.136Z,96901.98
2019-04-01T02:12:20.741Z,96898.34
2019-04-01T02:17:15.324Z,96912.56
2019-04-01T02:22:10.068Z,96915.61
2019-04-01T02:27:04.722Z,96913.65
2019-04-01T02:31:59.350Z,96910.71
2019-04-01T02:36:53.913Z,96911.01
2019-04-01T02:41:48.529Z,96901.41
2019-04-01T02:46:43.132Z,96903.89
2019-04-01T02:51:37.735Z,96905.47
2019-04-01T02:56:32.323Z,96914.74
2019-04-01T03:01:26.906Z,96918.34
2019-04-01T03:06:21.480Z,96914.94
2019-04-01T03:11:16.102Z,96915.23
2019-04-01T03:16:10.682Z,96915.28
2019-04-01T03:21:05.280Z,96913.42
2019-04-01T03:25:59.848Z,96905.19
2019-04-01T03:30:54.515Z,96914.36
2019-04-01T03:35:49.099Z,96911.44
2019-04-01T03:40:43.700Z,96911.84
2019-04-01T03:45:38.260Z,96911.46
2019-04-01T03:50:32.911Z,96919.41
2019-04-01T03:55:27.492Z,96915.17
2019-04-01T04:00:22.082Z,96917.52
2019-04-01T04:05:16.650Z,96919.36
2019-04-01T04:10:11.315Z,96921.54
2019-04-01T04:15:07.094Z,96921.43
2019-04-01T04:20:01.700Z,96920.38
2019-04-01T04:24:56.336Z,96925.77
2019-04-01T04:29:50.921Z,96927.67
2019-04-01T04:34:45.501Z,96923.36
2019-04-01T04:39:40.103Z,96927.48
2019-04-01T04:44:34.680Z,96927.09
2019-04-01T04:49:29.263Z,96929.72
2019-04-01T04:54:23.924Z,96926.41
2019-04-01T04:59:19.350Z,96927.60
2019-04-01T05:04:13.924Z,96932.50
2019-04-01T05:09:08.507Z,96943.25
2019-04-01T05:14:03.089Z,96941.54
2019-04-01T05:18:57.682Z,96944.13
2019-04-01T05:23:54.733Z,96939.95
2019-04-01T05:28:51.520Z,96947.08
2019-04-01T05:33:55.314Z,96951.38
2019-04-01T05:38:44.337Z,96954.02
2019-04-01T05:43:39.140Z,96953.38
2019-04-01T05:48:33.866Z,96951.23
2019-04-01T05:53:28.658Z,96959.48
2019-04-01T05:58:23.618Z,96955.23
2019-04-01T06:03:19.336Z,96954.88
2019-04-01T06:08:14.080Z,96949.11
2019-04-01T06:13:08.811Z,96962.97
2019-04-01T06:18:03.510Z,96958.64
2019-04-01T06:22:58.174Z,96960.34
2019-04-01T06:27:52.740Z,96964.88
2019-04-01T06:32:48.145Z,96964.81
2019-04-01T06:37:43.058Z,96962.64
2019-04-01T06:42:37.719Z,96962.92
2019-04-01T06:47:32.393Z,96958.97
2019-04-01T06:52:26.983Z,96957.96
2019-04-01T06:57:21.656Z,96960.52
2019-04-01T07:02:16.240Z,96957.45
2019-04-01T07:07:18.746Z,96962.70
2019-04-01T07:12:09.338Z,96958.88
2019-04-01T07:17:05.010Z,96953.08
2019-04-01T07:22:00.141Z,96966.38
2019-04-01T07:26:55.671Z,96963.88
2019-04-01T07:31:51.803Z,96963.59
2019-04-01T07:36:49.170Z,96968.88
2019-04-01T07:41:44.182Z,96965.73
2019-04-01T07:46:38.795Z,96972.23
2019-04-01T07:51:38.446Z,96973.55
2019-04-01T07:56:38.657Z,96972.46
2019-04-01T08:01:38.605Z,96972.66
2019-04-01T08:06:33.337Z,96967.55
2019-04-01T08:11:32.527Z,96970.08
2019-04-01T08:16:33.158Z,96969.84
2019-04-01T08:21:28.370Z,96974.35
2019-04-01T08:26:24.670Z,96968.70
2019-04-01T08:31:19.719Z,96965.69
2019-04-01T08:36:14.461Z,96962.36
2019-04-01T08:41:09.199Z,96964.03
2019-04-01T08:46:04.020Z,96965.75
2019-04-01T08:51:04.661Z,96959.83
2019-04-01T08:56:02.183Z,96961.33
2019-04-01T09:00:57.054Z,96960.48
2019-04-01T09:05:53.840Z,96956.69
2019-04-01T09:10:48.716Z,96951.53
2019-04-01T09:15:44.687Z,96951.14
2019-04-01T09:20:39.295Z,96947.36
2019-04-01T09:25:33.894Z,96946.47
2019-04-01T09:30:28.624Z,96943.79
2019-04-01T09:35:23.344Z,96950.83
2019-04-01T09:40:18.254Z,96949.70
2019-04-01T09:45:13.088Z,96950.73
2019-04-01T09:50:09.248Z,96940.36
2019-04-01T09:55:06.148Z,96934.14
2019-04-01T10:00:00.539Z,96930.19
2019-04-01T10:04:55.135Z,96921.16
2019-04-01T10:09:50.234Z,96917.59
2019-04-01T10:14:44.794Z,96915.53
2019-04-01T10:19:40.365Z,96909.97
2019-04-01T10:24:35.047Z,96910.19
2019-04-01T10:29:29.699Z,96904.25
2019-04-01T10:34:24.373Z,96902.50
2019-04-01T10:39:19.062Z,96900.66
2019-04-01T10:44:14.550Z,96896.27
2019-04-01T10:49:09.230Z,96897.14
2019-04-01T10:54:10.977Z,96888.27
2019-04-01T10:59:06.851Z,96884.62
2019-04-01T11:04:02.905Z,96877.69
2019-04-01T11:08:57.623Z,96871.08
2019-04-01T11:13:53.902Z,96850.55
2019-04-01T11:18:48.843Z,96852.83
2019-04-01T11:23:44.683Z,96837.83
2019-04-01T11:28:39.281Z,96841.63
2019-04-01T11:33:35.480Z,96841.43
2019-04-01T11:38:30.118Z,96838.02
2019-04-01T11:43:24.722Z,96837.47
2019-04-01T11:48:22.983Z,96824.05
2019-04-01T11:53:17.977Z,96831.17
2019-04-01T11:58:12.731Z,96817.35
2019-04-01T12:03:07.415Z,96814.48
2019-04-01T12:08:02.561Z,96797.73
2019-04-01T12:12:57.186Z,96807.53
2019-04-01T12:17:53.452Z,96789.77
2019-04-01T12:22:48.066Z,96786.44
2019-04-01T12:27:42.740Z,96790.41
2019-04-01T12:32:39.579Z,96776.21
2019-04-01T12:37:34.220Z,96765.77
2019-04-01T12:42:28.971Z,96757.86
2019-04-01T12:47:24.624Z,96758.65
2019-04-01T12:52:20.749Z,96746.52
2019-04-01T12:57:18.759Z,96740.44
2019-04-01T13:02:12.186Z,96739.11
2019-04-01T13:07:07.075Z,96732.16
2019-04-01T13:12:01.730Z,96724.81
2019-04-01T13:16:56.425Z,96717.10
2019-04-01T13:21:51.701Z,96709.16
2019-04-01T13:26:46.430Z,96716.33
2019-04-01T13:31:41.033Z,96705.47
2019-04-01T13:36:35.638Z,96708.40
2019-04-01T13:41:41.776Z,96704.17
2019-04-01T13:46:26.775Z,96695.16
2019-04-01T13:51:21.496Z,96695.16
2019-04-01T13:56:16.293Z,96678.11
2019-04-01T14:01:11.061Z,96683.16
2019-04-01T14:06:05.929Z,96666.39
2019-04-01T14:11:00.678Z,96662.59
2019-04-01T14:15:57.027Z,96660.78
2019-04-01T14:20:53.000Z,96658.98
2019-04-01T14:25:49.183Z,96645.78
2019-04-01T14:30:52.516Z,96649.78
2019-04-01T14:35:54.068Z,96642.55
2019-04-01T14:40:51.817Z,96642.25
2019-04-01T14:45:50.193Z,96633.20
2019-04-01T14:51:04.538Z,96631.75
2019-04-01T14:56:04.203Z,96629.73
2019-04-01T15:01:01.250Z,96624.10
2019-04-01T15:06:04.281Z,96613.96
2019-04-01T15:11:04.585Z,96620.52
2019-04-01T15:16:02.225Z,96619.23
2019-04-01T15:20:57.757Z,96619.52
2019-04-01T15:25:54.694Z,96613.28
2019-04-01T15:31:01.408Z,96609.01
2019-04-01T15:35:59.417Z,96612.02
2019-04-01T15:40:58.126Z,96604.69
2019-04-01T15:45:51.214Z,96596.45
2019-04-01T15:50:45.991Z,96588.09
2019-04-01T15:55:40.871Z,96589.33
2019-04-01T16:00:35.648Z,96583.96
2019-04-01T16:05:30.620Z,96578.92
2019-04-01T16:10:29.058Z,96580.38
2019-04-01T16:15:21.893Z,96581.94
2019-04-01T16:20:16.895Z,96577.53
2019-04-01T16:25:13.175Z,96574.05
2019-04-01T16:30:09.801Z,96575.48
2019-04-01T16:35:06.784Z,96578.39
2019-04-01T16:40:01.494Z,96579.97
2019-04-01T16:44:56.363Z,96578.42
2019-04-01T16:49:51.117Z,96579.99
2019-04-01T16:54:59.281Z,96581.91
2019-04-01T16:59:54.279Z,96577.97
2019-04-01T17:04:49.345Z,96578.77
2019-04-01T17:09:44.708Z,96579.34
2019-04-01T17:14:39.797Z,96587.31
2019-04-01T17:19:34.783Z,96580.18
2019-04-01T17:24:30.016Z,96587.59
2019-04-01T17:29:25.853Z,96587.59
2019-04-01T17:34:31.168Z,96592.34
2019-04-01T17:39:25.916Z,96594.66
2019-04-01T17:44:20.778Z,96595.70
2019-04-01T17:49:15.502Z,96594.33
2019-04-01T17:54:10.245Z,96595.36
2019-04-01T17:59:05.104Z,96601.12
2019-04-01T18:03:59.842Z,96599.77
2019-04-01T18:08:54.466Z,96598.36
2019-04-01T18:13:49.245Z,96600.63
2019-04-01T18:18:44.888Z,96605.09
2019-04-01T18:23:39.622Z,96606.19
2019-04-01T18:28:34.401Z,96611.14
2019-04-01T18:33:30.246Z,96613.86
2019-04-01T18:38:25.746Z,96620.65
2019-04-01T18:43:20.638Z,96626.73
2019-04-01T18:48:15.431Z,96630.53
2019-04-01T18:53:10.251Z,96638.11
2019-04-01T18:58:05.024Z,96644.99
2019-04-01T19:02:59.824Z,96646.73
2019-04-01T19:07:54.692Z,96646.27
2019-04-01T19:12:49.547Z,96647.14
2019-04-01T19:17:44.488Z,96644.94
2019-04-01T19:22:39.282Z,96655.05
2019-04-01T19:27:34.054Z,96648.07
2019-04-01T19:32:28.872Z,96653.50
2019-04-01T19:37:23.729Z,96655.18
2019-04-01T19:42:18.532Z,96653.40
2019-04-01T19:47:13.301Z,96658.64
2019-04-01T19:52:09.738Z,96658.13
2019-04-01T19:57:05.938Z,96666.19
2019-04-01T20:02:00.903Z,96665.67
2019-04-01T20:06:55.742Z,96664.76
2019-04-01T20:11:50.572Z,96672.16
2019-04-01T20:16:47.032Z,96673.15
2019-04-01T20:21:41.974Z,96661.44
2019-04-01T20:26:36.742Z,96664.73
2019-04-01T20:31:31.475Z,96666.84
2019-04-01T20:36:28.704Z,96667.41
2019-04-01T20:41:22.691Z,96663.54
2019-04-01T20:46:17.399Z,96659.03
2019-04-01T20:51:12.189Z,96664.22
2019-04-01T20:56:07.123Z,96657.97
2019-04-01T21:01:02.003Z,96655.94
2019-04-01T21:05:56.712Z,96658.05
2019-04-01T21:10:51.440Z,96661.03
2019-04-01T21:15:46.237Z,96656.31
2019-04-01T21:20:41.349Z,96648.72
2019-04-01T21:25:36.973Z,96649.20
2019-04-01T21:30:31.753Z,96644.49
2019-04-01T21:35:26.559Z,96643.77
2019-04-01T21:40:21.408Z,96636.86
2019-04-01T21:45:17.814Z,96635.11
2019-04-01T21:50:12.949Z,96629.37
2019-04-01T21:55:08.653Z,96632.39
2019-04-01T22:00:05.069Z,96642.44
2019-04-01T22:04:59.881Z,96636.61
2019-04-01T22:09:54.759Z,96642.30
2019-04-01T22:14:49.439Z,96641.90
2019-04-01T22:19:44.234Z,96642.50
2019-04-01T22:24:39.038Z,96634.69
2019-04-01T22:29:33.873Z,96627.91
2019-04-01T22:34:28.615Z,96631.48
2019-04-01T22:39:27.420Z,96639.58
2019-04-01T22:44:19.894Z,96642.55
2019-04-01T22:49:14.680Z,96639.52
2019-04-01T22:54:09.542Z,96639.52
2019-04-01T22:59:04.367Z,96638.92
2019-04-01T23:03:59.100Z,96631.89
2019-04-01T23:08:53.822Z,96636.27
2019-04-01T23:13:48.804Z,96636.14
2019-04-01T23:18:43.540Z,96625.57
2019-04-01T23:23:38.166Z,96624.63
2019-04-01T23:28:32.776Z,96623.05
2019-04-01T23:33:27.662Z,96618.26
2019-04-01T23:38:22.455Z,96613.24
2019-04-01T23:43:17.189Z,96613.75
2019-04-01T23:48:11.902Z,96611.05
2019-04-01T23:53:06.779Z,96611.36
2019-04-01T23:58:01.551Z,96614.77
